createdAt,value
2018-08-12T00:02:18.093Z,17.05
2018-08-12T00:04:46.584Z,17.03
2018-08-12T00:07:15.466Z,17.01
2018-08-12T00:09:43.922Z,17.03
2018-08-12T00:12:12.366Z,16.83
2018-08-12T00:14:41.040Z,16.99
2018-08-12T00:17:09.465Z,16.99
2018-08-12T00:19:37.929Z,16.99
2018-08-12T00:22:06.777Z,16.97
2018-08-12T00:24:35.246Z,16.99
2018-08-12T00:27:03.729Z,17.00
2018-08-12T00:29:32.274Z,16.97
2018-08-12T00:32:00.749Z,16.92
2018-08-12T00:34:29.243Z,16.91
2018-08-12T00:36:58.277Z,16.91
2018-08-12T00:39:26.729Z,16.91
2018-08-12T00:41:55.517Z,16.88
2018-08-12T00:44:24.622Z,16.88
2018-08-12T00:46:53.210Z,16.84
2018-08-12T00:49:21.721Z,16.80
2018-08-12T00:51:50.693Z,16.79
2018-08-12T00:54:19.244Z,16.81
2018-08-12T00:56:47.725Z,16.79
2018-08-12T00:59:16.293Z,16.76
2018-08-12T01:01:45.281Z,16.73
2018-08-12T01:04:14.157Z,16.75
2018-08-12T01:06:43.229Z,16.76
2018-08-12T01:09:13.197Z,16.72
2018-08-12T01:11:41.962Z,16.69
2018-08-12T01:14:10.905Z,16.67
2018-08-12T01:16:39.375Z,16.70
2018-08-12T01:19:08.205Z,16.70
2018-08-12T01:21:36.961Z,16.69
2018-08-12T01:24:05.569Z,16.69
2018-08-12T01:26:34.030Z,16.63
2018-08-12T01:29:02.632Z,16.55
2018-08-12T01:31:31.145Z,16.48
2018-08-12T01:33:59.997Z,16.43
2018-08-12T01:36:28.446Z,16.40
2018-08-12T01:38:56.977Z,16.35
2018-08-12T01:41:25.393Z,16.35
2018-08-12T01:43:54.117Z,16.33
2018-08-12T01:46:22.838Z,16.33
2018-08-12T01:48:51.289Z,16.28
2018-08-12T01:51:19.929Z,16.04
2018-08-12T01:53:48.706Z,16.10
2018-08-12T01:56:17.225Z,16.08
2018-08-12T01:58:45.829Z,16.03
2018-08-12T02:01:14.252Z,15.99
2018-08-12T02:03:42.705Z,15.91
2018-08-12T02:06:11.456Z,15.85
2018-08-12T02:08:39.949Z,15.78
2018-08-12T02:11:08.468Z,15.74
2018-08-12T02:13:37.021Z,15.68
2018-08-12T02:16:05.480Z,15.64
2018-08-12T02:18:33.973Z,15.61
2018-08-12T02:21:02.614Z,15.61
2018-08-12T02:23:31.078Z,15.62
2018-08-12T02:25:59.557Z,15.62
2018-08-12T02:28:28.115Z,15.59
2018-08-12T02:30:56.578Z,15.54
2018-08-12T02:33:26.679Z,15.46
2018-08-12T02:35:55.219Z,15.40
2018-08-12T02:38:23.712Z,15.35
2018-08-12T02:40:52.201Z,15.29
2018-08-12T02:43:20.993Z,15.26
2018-08-12T02:45:50.109Z,15.25
2018-08-12T02:48:18.602Z,15.24
2018-08-12T02:50:47.356Z,15.27
2018-08-12T02:53:15.909Z,15.30
2018-08-12T02:55:48.573Z,15.31
2018-08-12T02:58:17.107Z,15.31
2018-08-12T03:00:46.679Z,15.32
2018-08-12T03:03:15.385Z,15.31
2018-08-12T03:05:43.997Z,15.29
2018-08-12T03:08:12.518Z,15.28
2018-08-12T03:10:41.346Z,15.15
2018-08-12T03:13:10.233Z,15.11
2018-08-12T03:15:38.695Z,15.10
2018-08-12T03:18:07.173Z,15.09
2018-08-12T03:20:35.742Z,15.10
2018-08-12T03:23:04.193Z,15.07
2018-08-12T03:25:32.664Z,15.05
2018-08-12T03:28:01.606Z,15.07
2018-08-12T03:30:30.071Z,15.04
2018-08-12T03:32:58.532Z,15.02
2018-08-12T03:35:27.141Z,15.02
2018-08-12T03:37:55.622Z,15.03
2018-08-12T03:40:24.120Z,15.04
2018-08-12T03:42:52.915Z,15.05
2018-08-12T03:45:22.409Z,15.05
2018-08-12T03:47:51.171Z,15.03
2018-08-12T03:50:19.778Z,15.06
2018-08-12T03:52:48.234Z,15.03
2018-08-12T03:55:16.733Z,15.02
2018-08-12T03:57:45.288Z,15.02
2018-08-12T04:00:16.577Z,15.00
2018-08-12T04:02:46.183Z,14.99
2018-08-12T04:05:15.013Z,14.92
2018-08-12T04:07:43.623Z,15.04
2018-08-12T04:10:12.157Z,15.02
2018-08-12T04:12:40.985Z,15.02
2018-08-12T04:15:10.806Z,15.05
2018-08-12T04:17:39.425Z,15.06
2018-08-12T04:20:09.935Z,15.06
2018-08-12T04:22:39.092Z,15.02
2018-08-12T04:25:07.641Z,15.01
2018-08-12T04:27:36.191Z,14.99
2018-08-12T04:30:06.441Z,14.92
2018-08-12T04:32:35.245Z,14.89
2018-08-12T04:35:04.013Z,14.92
2018-08-12T04:37:33.121Z,14.97
2018-08-12T04:40:01.722Z,14.98
2018-08-12T04:42:31.368Z,14.96
2018-08-12T04:44:59.805Z,14.98
2018-08-12T04:47:28.309Z,15.01
2018-08-12T04:49:57.217Z,15.08
2018-08-12T04:52:25.829Z,15.15
2018-08-12T04:54:54.306Z,15.21
2018-08-12T04:57:23.001Z,15.29
2018-08-12T04:59:51.496Z,15.36
2018-08-12T05:02:19.957Z,15.43
2018-08-12T05:04:48.846Z,15.50
2018-08-12T05:07:17.346Z,15.54
2018-08-12T05:09:45.801Z,15.60
2018-08-12T05:12:14.340Z,15.69
2018-08-12T05:14:42.821Z,15.75
2018-08-12T05:17:11.289Z,15.86
2018-08-12T05:19:40.037Z,15.86
2018-08-12T05:22:08.458Z,15.95
2018-08-12T05:24:36.927Z,15.97
2018-08-12T05:27:05.545Z,16.07
2018-08-12T05:29:34.045Z,16.15
2018-08-12T05:32:02.578Z,16.19
2018-08-12T05:34:31.773Z,16.20
2018-08-12T05:37:00.212Z,16.20
2018-08-12T05:39:28.837Z,16.16
2018-08-12T05:41:57.596Z,16.16
2018-08-12T05:44:26.029Z,16.20
2018-08-12T05:46:54.614Z,16.26
2018-08-12T05:49:23.034Z,16.29
2018-08-12T05:51:51.777Z,16.26
2018-08-12T05:54:20.550Z,16.32
2018-08-12T05:56:49.019Z,16.47
2018-08-12T05:59:17.534Z,16.62
2018-08-12T06:01:46.019Z,16.84
2018-08-12T06:04:14.525Z,17.12
2018-08-12T06:06:42.992Z,17.37
2018-08-12T06:09:11.980Z,17.65
2018-08-12T06:11:40.800Z,17.88
2018-08-12T06:14:09.561Z,17.99
2018-08-12T06:16:38.063Z,18.04
2018-08-12T06:19:06.654Z,18.09
2018-08-12T06:21:35.166Z,18.14
2018-08-12T06:24:03.756Z,18.24
2018-08-12T06:26:32.786Z,18.34
2018-08-12T06:29:02.391Z,18.42
2018-08-12T06:31:30.990Z,18.47
2018-08-12T06:33:59.731Z,18.53
2018-08-12T06:36:28.277Z,18.51
2018-08-12T06:38:56.761Z,18.51
2018-08-12T06:41:25.261Z,18.47
2018-08-12T06:43:53.705Z,18.31
2018-08-12T06:46:22.302Z,18.11
2018-08-12T06:48:50.875Z,18.00
2018-08-12T06:51:19.353Z,17.91
2018-08-12T06:53:47.849Z,17.86
2018-08-12T06:56:16.625Z,17.81
2018-08-12T06:58:45.098Z,17.78
2018-08-12T07:01:13.614Z,17.75
2018-08-12T07:03:42.276Z,17.74
2018-08-12T07:06:10.777Z,17.78
2018-08-12T07:08:39.465Z,17.86
2018-08-12T07:11:08.113Z,17.90
2018-08-12T07:13:36.626Z,17.95
2018-08-12T07:16:05.169Z,18.01
2018-08-12T07:18:33.806Z,18.25
2018-08-12T07:21:02.318Z,18.88
2018-08-12T07:23:30.935Z,19.70
2018-08-12T07:25:59.825Z,20.59
2018-08-12T07:28:28.297Z,21.28
2018-08-12T07:30:56.777Z,21.92
2018-08-12T07:33:25.290Z,22.31
2018-08-12T07:35:54.406Z,22.84
2018-08-12T07:38:23.193Z,23.08
2018-08-12T07:40:51.941Z,22.91
2018-08-12T07:43:20.457Z,21.82
2018-08-12T07:45:49.033Z,20.19
2018-08-12T07:48:18.191Z,18.68
2018-08-12T07:50:46.633Z,17.86
2018-08-12T07:53:15.222Z,17.35
2018-08-12T07:55:44.496Z,16.96
2018-08-12T07:58:12.875Z,16.62
2018-08-12T08:00:41.381Z,16.39
2018-08-12T08:03:10.111Z,16.20
2018-08-12T08:05:38.697Z,16.06
2018-08-12T08:08:07.205Z,15.95
2018-08-12T08:10:35.775Z,15.73
2018-08-12T08:13:04.401Z,15.68
2018-08-12T08:15:33.864Z,15.67
2018-08-12T08:18:02.888Z,15.71
2018-08-12T08:20:31.503Z,15.69
2018-08-12T08:23:00.019Z,15.42
2018-08-12T08:25:29.014Z,15.31
2018-08-12T08:27:57.690Z,15.37
2018-08-12T08:30:26.193Z,15.53
2018-08-12T08:32:54.737Z,15.72
2018-08-12T08:35:23.271Z,15.94
2018-08-12T08:37:51.766Z,16.22
2018-08-12T08:40:20.421Z,16.44
2018-08-12T08:42:48.993Z,16.89
2018-08-12T08:45:19.797Z,17.57
2018-08-12T08:47:49.492Z,18.17
2018-08-12T08:50:19.137Z,18.40
2018-08-12T08:52:47.645Z,18.57
2018-08-12T08:55:16.774Z,18.55
2018-08-12T08:57:46.129Z,18.49
2018-08-12T09:00:16.495Z,18.61
2018-08-12T09:02:47.286Z,18.92
2018-08-12T09:05:16.345Z,18.86
2018-08-12T09:07:44.962Z,18.72
2018-08-12T09:10:14.993Z,18.54
2018-08-12T09:12:43.490Z,18.35
2018-08-12T09:15:14.028Z,18.19
2018-08-12T09:17:43.369Z,18.00
2018-08-12T09:20:13.865Z,17.60
2018-08-12T09:22:42.508Z,17.14
2018-08-12T09:25:12.153Z,16.94
2018-08-12T09:27:40.681Z,16.83
2018-08-12T09:30:21.505Z,16.77
2018-08-12T09:32:50.168Z,16.79
2018-08-12T09:35:18.770Z,16.91
2018-08-12T09:37:47.324Z,17.09
2018-08-12T09:40:17.133Z,17.21
2018-08-12T09:42:46.756Z,17.44
2018-08-12T09:45:17.681Z,17.75
2018-08-12T09:47:46.476Z,18.13
2018-08-12T09:50:16.454Z,18.59
2018-08-12T09:52:48.230Z,19.01
2018-08-12T09:55:17.265Z,19.41
2018-08-12T09:57:46.233Z,19.80
2018-08-12T10:00:22.629Z,20.15
2018-08-12T10:02:52.676Z,20.08
2018-08-12T10:05:21.277Z,19.95
2018-08-12T10:07:49.764Z,19.74
2018-08-12T10:10:18.873Z,19.43
2018-08-12T10:12:47.493Z,19.30
2018-08-12T10:15:16.498Z,19.10
2018-08-12T10:17:49.023Z,18.99
2018-08-12T10:20:17.599Z,18.95
2018-08-12T10:22:46.140Z,18.96
2018-08-12T10:25:14.690Z,19.01
2018-08-12T10:27:43.165Z,19.02
2018-08-12T10:30:12.950Z,18.98
2018-08-12T10:32:42.049Z,19.07
2018-08-12T10:35:11.964Z,19.22
2018-08-12T10:37:40.894Z,19.09
2018-08-12T10:40:12.504Z,18.90
2018-08-12T10:42:41.134Z,19.00
2018-08-12T10:45:11.146Z,19.22
2018-08-12T10:47:40.925Z,19.29
2018-08-12T10:50:14.809Z,19.27
2018-08-12T10:52:44.406Z,19.10
2018-08-12T10:55:14.066Z,19.02
2018-08-12T10:57:43.245Z,18.99
2018-08-12T11:00:17.983Z,19.05
2018-08-12T11:02:47.137Z,19.07
2018-08-12T11:05:16.478Z,18.66
2018-08-12T11:07:46.115Z,18.30
2018-08-12T11:10:14.719Z,18.05
2018-08-12T11:12:43.552Z,18.14
2018-08-12T11:15:12.139Z,18.30
2018-08-12T11:17:41.398Z,18.38
2018-08-12T11:20:10.578Z,18.36
2018-08-12T11:22:39.617Z,18.65
2018-08-12T11:25:09.701Z,18.90
2018-08-12T11:27:38.290Z,19.04
2018-08-12T11:30:10.920Z,19.12
2018-08-12T11:32:39.639Z,19.18
2018-08-12T11:35:09.962Z,19.25
2018-08-12T11:37:39.103Z,19.28
2018-08-12T11:40:09.053Z,19.32
2018-08-12T11:42:37.554Z,19.39
2018-08-12T11:45:08.413Z,19.38
2018-08-12T11:47:38.265Z,19.33
2018-08-12T11:50:07.823Z,19.25
2018-08-12T11:52:36.405Z,19.16
2018-08-12T11:55:05.838Z,19.14
2018-08-12T11:57:34.297Z,19.03
2018-08-12T12:00:03.297Z,18.94
2018-08-12T12:02:31.797Z,19.02
2018-08-12T12:05:00.842Z,19.39
2018-08-12T12:07:29.413Z,19.90
2018-08-12T12:09:57.863Z,19.90
2018-08-12T12:12:26.328Z,20.17
2018-08-12T12:14:55.004Z,20.24
2018-08-12T12:17:23.574Z,20.35
2018-08-12T12:19:52.082Z,20.38
2018-08-12T12:22:21.117Z,20.35
2018-08-12T12:24:49.577Z,19.84
2018-08-12T12:27:18.763Z,19.17
2018-08-12T12:29:47.402Z,18.68
2018-08-12T12:32:15.850Z,18.45
2018-08-12T12:34:44.305Z,17.99
2018-08-12T12:37:12.950Z,17.50
2018-08-12T12:39:41.425Z,16.89
2018-08-12T12:42:09.919Z,16.52
2018-08-12T12:44:38.825Z,16.30
2018-08-12T12:47:07.273Z,16.16
2018-08-12T12:49:42.954Z,16.20
2018-08-12T12:52:11.449Z,16.16
2018-08-12T12:54:39.925Z,16.12
2018-08-12T12:57:08.849Z,16.17
2018-08-12T12:59:37.317Z,16.28
2018-08-12T13:02:06.074Z,16.32
2018-08-12T13:04:34.861Z,16.28
2018-08-12T13:07:04.019Z,16.09
2018-08-12T13:09:33.050Z,15.87
2018-08-12T13:12:01.657Z,15.71
2018-08-12T13:14:30.119Z,15.80
2018-08-12T13:16:58.573Z,15.97
2018-08-12T13:19:27.201Z,15.93
2018-08-12T13:21:55.673Z,15.99
2018-08-12T13:24:24.208Z,16.05
2018-08-12T13:26:52.941Z,15.94
2018-08-12T13:29:21.389Z,15.83
2018-08-12T13:31:49.857Z,15.86
2018-08-12T13:34:19.413Z,15.88
2018-08-12T13:36:47.874Z,15.92
2018-08-12T13:39:16.433Z,15.96
2018-08-12T13:41:45.154Z,15.99
2018-08-12T13:44:13.589Z,16.02
2018-08-12T13:46:42.082Z,16.15
2018-08-12T13:49:11.016Z,16.40
2018-08-12T13:51:39.602Z,16.41
2018-08-12T13:54:08.087Z,16.50
2018-08-12T13:56:36.717Z,16.54
2018-08-12T13:59:05.733Z,16.49
2018-08-12T14:01:34.247Z,16.53
2018-08-12T14:04:03.037Z,16.54
2018-08-12T14:06:31.530Z,16.78
2018-08-12T14:08:59.997Z,16.85
2018-08-12T14:11:28.969Z,16.70
2018-08-12T14:13:57.528Z,16.45
2018-08-12T14:16:25.988Z,16.46
2018-08-12T14:18:54.732Z,16.42
2018-08-12T14:21:24.319Z,16.44
2018-08-12T14:23:52.709Z,16.43
2018-08-12T14:26:21.311Z,16.54
2018-08-12T14:28:49.793Z,16.71
2018-08-12T14:31:18.306Z,16.96
2018-08-12T14:33:47.222Z,17.16
2018-08-12T14:36:15.678Z,17.39
2018-08-12T14:38:44.197Z,17.70
2018-08-12T14:41:13.209Z,17.94
2018-08-12T14:43:41.637Z,18.03
2018-08-12T14:46:10.117Z,18.02
2018-08-12T14:48:38.701Z,17.88
2018-08-12T14:51:07.238Z,17.70
2018-08-12T14:53:35.993Z,17.59
2018-08-12T14:56:04.631Z,17.51
2018-08-12T14:58:33.209Z,17.44
2018-08-12T15:01:01.689Z,17.36
2018-08-12T15:03:30.457Z,17.29
2018-08-12T15:05:59.041Z,17.20
2018-08-12T15:08:27.504Z,17.14
2018-08-12T15:10:56.081Z,17.10
2018-08-12T15:13:24.541Z,17.07
2018-08-12T15:15:53.034Z,17.00
2018-08-12T15:18:21.673Z,17.00
2018-08-12T15:20:50.177Z,16.97
2018-08-12T15:23:18.654Z,16.87
2018-08-12T15:25:47.381Z,16.75
2018-08-12T15:28:15.921Z,16.64
2018-08-12T15:30:44.445Z,16.53
2018-08-12T15:33:13.157Z,16.52
2018-08-12T15:35:41.654Z,16.39
2018-08-12T15:38:10.109Z,16.30
2018-08-12T15:40:38.890Z,16.19
2018-08-12T15:43:07.393Z,16.05
2018-08-12T15:45:35.928Z,15.94
2018-08-12T15:48:04.638Z,15.85
2018-08-12T15:50:33.697Z,15.84
2018-08-12T15:53:02.728Z,15.92
2018-08-12T15:55:31.837Z,15.92
2018-08-12T15:58:00.761Z,15.98
2018-08-12T16:00:29.428Z,16.01
2018-08-12T16:02:58.267Z,16.05
2018-08-12T16:05:26.958Z,16.05
2018-08-12T16:07:55.432Z,16.09
2018-08-12T16:10:24.556Z,16.08
2018-08-12T16:12:54.088Z,16.16
2018-08-12T16:15:23.157Z,16.31
2018-08-12T16:17:51.737Z,16.42
2018-08-12T16:20:20.237Z,16.48
2018-08-12T16:22:48.729Z,16.50
2018-08-12T16:25:19.477Z,16.54
2018-08-12T16:27:47.966Z,16.49
2018-08-12T16:30:17.537Z,16.46
2018-08-12T16:32:46.269Z,16.44
2018-08-12T16:35:15.904Z,16.37
2018-08-12T16:37:45.054Z,16.32
2018-08-12T16:40:17.572Z,16.29
2018-08-12T16:42:46.491Z,16.14
2018-08-12T16:45:15.795Z,15.98
2018-08-12T16:47:44.768Z,15.96
2018-08-12T16:50:13.339Z,15.86
2018-08-12T16:52:42.167Z,15.71
2018-08-12T16:55:12.722Z,15.64
2018-08-12T16:57:41.317Z,15.59
2018-08-12T17:00:13.701Z,15.58
2018-08-12T17:02:42.481Z,15.50
2018-08-12T17:05:13.184Z,15.55
2018-08-12T17:07:42.214Z,15.57
2018-08-12T17:10:11.633Z,15.59
2018-08-12T17:12:40.388Z,15.58
2018-08-12T17:15:10.747Z,15.52
2018-08-12T17:17:39.359Z,15.53
2018-08-12T17:20:09.909Z,15.53
2018-08-12T17:22:38.605Z,15.55
2018-08-12T17:25:07.690Z,15.53
2018-08-12T17:27:37.018Z,15.50
2018-08-12T17:30:07.417Z,15.47
2018-08-12T17:32:36.023Z,15.43
2018-08-12T17:35:04.978Z,15.45
2018-08-12T17:37:34.176Z,15.55
2018-08-12T17:40:02.791Z,15.53
2018-08-12T17:42:31.357Z,15.39
2018-08-12T17:45:00.245Z,15.32
2018-08-12T17:47:28.718Z,15.26
2018-08-12T17:49:57.221Z,15.25
2018-08-12T17:52:25.765Z,15.15
2018-08-12T17:54:54.254Z,15.22
2018-08-12T17:57:22.834Z,15.22
2018-08-12T17:59:51.929Z,15.08
2018-08-12T18:02:20.390Z,15.04
2018-08-12T18:04:48.945Z,14.99
2018-08-12T18:07:17.797Z,14.98
2018-08-12T18:09:46.397Z,14.98
2018-08-12T18:12:14.874Z,15.00
2018-08-12T18:14:44.409Z,14.92
2018-08-12T18:17:13.025Z,14.79
2018-08-12T18:19:41.655Z,14.67
2018-08-12T18:22:10.221Z,14.69
2018-08-12T18:24:38.669Z,14.77
2018-08-12T18:27:07.221Z,14.74
2018-08-12T18:29:35.661Z,14.74
2018-08-12T18:32:04.409Z,14.84
2018-08-12T18:34:33.038Z,14.80
2018-08-12T18:37:01.537Z,14.78
2018-08-12T18:39:29.986Z,14.86
2018-08-12T18:41:58.444Z,14.91
2018-08-12T18:44:27.361Z,14.89
2018-08-12T18:46:55.801Z,14.85
2018-08-12T18:49:24.346Z,14.74
2018-08-12T18:51:52.922Z,14.63
2018-08-12T18:54:21.526Z,14.60
2018-08-12T18:56:50.005Z,14.59
2018-08-12T18:59:18.585Z,14.62
2018-08-12T19:01:47.613Z,14.58
2018-08-12T19:04:16.111Z,14.43
2018-08-12T19:06:44.653Z,14.30
2018-08-12T19:09:13.102Z,14.31
2018-08-12T19:11:41.638Z,14.21
2018-08-12T19:14:10.213Z,14.09
2018-08-12T19:16:38.685Z,13.99
2018-08-12T19:19:07.253Z,13.98
2018-08-12T19:21:35.701Z,13.98
2018-08-12T19:24:04.252Z,13.85
2018-08-12T19:26:32.990Z,13.69
2018-08-12T19:29:02.422Z,13.62
2018-08-12T19:31:30.878Z,13.63
2018-08-12T19:33:59.361Z,13.61
2018-08-12T19:36:27.961Z,13.63
2018-08-12T19:38:56.418Z,13.60
2018-08-12T19:41:25.758Z,13.64
2018-08-12T19:43:54.658Z,13.63
2018-08-12T19:46:23.366Z,13.56
2018-08-12T19:48:51.873Z,13.48
2018-08-12T19:51:27.074Z,13.46
2018-08-12T19:53:55.545Z,13.41
2018-08-12T19:56:25.061Z,13.41
2018-08-12T19:58:53.837Z,13.35
2018-08-12T20:01:22.450Z,13.32
2018-08-12T20:03:51.209Z,13.27
2018-08-12T20:06:19.997Z,13.27
2018-08-12T20:08:51.690Z,13.27
2018-08-12T20:11:20.706Z,13.11
2018-08-12T20:13:49.268Z,13.28
2018-08-12T20:16:17.794Z,13.28
2018-08-12T20:18:52.845Z,13.28
2018-08-12T20:21:21.597Z,13.28
2018-08-12T20:23:50.045Z,13.26
2018-08-12T20:26:18.517Z,13.25
2018-08-12T20:28:47.137Z,13.27
2018-08-12T20:31:15.594Z,13.11
2018-08-12T20:33:44.269Z,13.23
2018-08-12T20:36:12.745Z,13.21
2018-08-12T20:38:41.329Z,13.18
2018-08-12T20:41:09.925Z,13.15
2018-08-12T20:43:38.430Z,13.12
2018-08-12T20:46:06.929Z,13.09
2018-08-12T20:48:35.877Z,13.09
2018-08-12T20:51:04.366Z,13.10
2018-08-12T20:53:33.442Z,13.09
2018-08-12T20:56:02.445Z,13.08
2018-08-12T20:58:30.953Z,13.12
2018-08-12T21:00:59.415Z,13.13
2018-08-12T21:03:28.193Z,13.13
2018-08-12T21:05:57.190Z,13.12
2018-08-12T21:08:25.687Z,13.13
2018-08-12T21:10:54.317Z,13.13
2018-08-12T21:13:22.858Z,13.12
2018-08-12T21:15:51.327Z,13.12
2018-08-12T21:18:19.941Z,13.12
2018-08-12T21:20:48.453Z,13.11
2018-08-12T21:23:16.953Z,13.10
2018-08-12T21:25:45.513Z,13.13
2018-08-12T21:28:14.040Z,13.15
2018-08-12T21:30:42.485Z,13.18
2018-08-12T21:33:11.185Z,13.17
2018-08-12T21:35:39.701Z,13.18
2018-08-12T21:38:08.256Z,13.20
2018-08-12T21:40:37.260Z,13.19
2018-08-12T21:43:05.913Z,13.14
2018-08-12T21:45:35.531Z,13.15
2018-08-12T21:48:05.319Z,13.15
2018-08-12T21:50:33.916Z,13.16
2018-08-12T21:53:02.638Z,13.15
2018-08-12T21:55:31.144Z,13.17
2018-08-12T21:58:01.254Z,13.20
2018-08-12T22:00:31.903Z,13.23
2018-08-12T22:03:00.850Z,13.19
2018-08-12T22:05:29.582Z,13.17
2018-08-12T22:07:58.493Z,13.18
2018-08-12T22:10:27.396Z,13.22
2018-08-12T22:12:55.951Z,13.24
2018-08-12T22:15:24.687Z,13.26
2018-08-12T22:17:53.800Z,13.24
2018-08-12T22:20:22.303Z,13.24
2018-08-12T22:22:50.918Z,9.99
2018-08-12T22:25:19.817Z,13.23
2018-08-12T22:27:48.302Z,13.26
2018-08-12T22:30:17.532Z,13.26
2018-08-12T22:32:46.089Z,13.25
2018-08-12T22:35:14.741Z,13.27
2018-08-12T22:37:43.238Z,13.28
2018-08-12T22:40:11.883Z,13.28
2018-08-12T22:42:40.397Z,13.30
2018-08-12T22:45:10.192Z,13.29
2018-08-12T22:47:38.745Z,13.29
2018-08-12T22:50:07.957Z,12.50
2018-08-12T22:52:36.501Z,13.29
2018-08-12T22:55:05.801Z,13.30
2018-08-12T22:57:35.497Z,13.26
2018-08-12T23:00:05.861Z,13.26
2018-08-12T23:02:34.371Z,13.27
2018-08-12T23:05:03.697Z,13.27
2018-08-12T23:07:32.217Z,13.28
2018-08-12T23:10:01.301Z,12.76
2018-08-12T23:12:29.798Z,13.26
2018-08-12T23:17:06.409Z,13.25
2018-08-12T23:19:34.974Z,13.26
2018-08-12T23:22:03.467Z,13.26
2018-08-12T23:24:32.258Z,13.24
2018-08-12T23:27:00.768Z,13.25
2018-08-12T23:29:29.221Z,13.27
2018-08-12T23:31:58.039Z,13.27
2018-08-12T23:34:26.477Z,13.24
2018-08-12T23:36:55.150Z,13.24
2018-08-12T23:39:24.028Z,13.22
2018-08-12T23:41:52.524Z,13.19
2018-08-12T23:44:21.057Z,13.18
2018-08-12T23:46:49.801Z,13.15
2018-08-12T23:49:18.237Z,13.15
2018-08-12T23:51:46.741Z,13.15
2018-08-12T23:54:15.526Z,13.15
2018-08-12T23:56:44.003Z,13.16
2018-08-12T23:59:12.501Z,13.18
